createdAt,value
2022-11-04T00:02:48.176Z,100741.38
2022-11-04T00:08:09.217Z,100736.41
2022-11-04T00:13:11.459Z,100729.97
2022-11-04T00:18:13.689Z,100757.19
2022-11-04T00:23:34.686Z,100743.06
2022-11-04T00:28:46.259Z,100741.13
2022-11-04T00:33:50.011Z,100731.75
2022-11-04T00:38:52.576Z,100750.47
2022-11-04T00:44:01.965Z,100751.28
2022-11-04T00:49:04.231Z,100742.88
2022-11-04T00:54:06.747Z,100742.47
2022-11-04T00:59:11.772Z,100742.81
2022-11-04T01:04:16.883Z,100748.22
2022-11-04T01:09:19.144Z,100743.44
2022-11-04T01:14:22.579Z,100745.63
2022-11-04T01:19:24.833Z,100733.56
2022-11-04T01:24:27.431Z,100735.06
2022-11-04T01:29:29.686Z,100717.09
2022-11-04T01:34:32.167Z,100732.03
2022-11-04T01:39:34.460Z,100723.66
2022-11-04T01:44:42.420Z,100727.19
2022-11-04T01:49:47.943Z,100717.63
2022-11-04T01:54:55.873Z,100714.06
2022-11-04T02:00:01.930Z,100711.94
2022-11-04T02:05:05.317Z,100707.78
2022-11-04T02:10:08.369Z,100692.16
2022-11-04T02:15:11.589Z,100686.94
2022-11-04T02:20:37.865Z,100702.44
2022-11-04T02:26:17.935Z,100680.13
2022-11-04T02:31:35.221Z,100697.13
2022-11-04T02:36:55.662Z,100705.19
2022-11-04T02:42:09.948Z,100701.66
2022-11-04T02:47:21.089Z,100679.50
2022-11-04T02:52:33.598Z,100702.13
2022-11-04T02:57:39.753Z,100686.88
2022-11-04T03:02:43.735Z,100676.63
2022-11-04T03:07:48.667Z,100695.41
2022-11-04T03:12:59.396Z,100689.88
2022-11-04T03:18:18.757Z,100713.38
2022-11-04T03:23:21.051Z,100702.38
2022-11-04T03:29:05.475Z,100711.81
2022-11-04T03:34:07.820Z,100663.94
2022-11-04T03:39:10.738Z,100694.69
2022-11-04T03:44:13.025Z,100713.59
2022-11-04T03:49:15.941Z,100691.13
2022-11-04T03:54:18.968Z,100710.84
2022-11-04T03:59:59.919Z,100721.97
2022-11-04T04:05:24.319Z,100695.28
2022-11-04T04:10:41.074Z,100693.59
2022-11-04T04:15:49.004Z,100672.69
2022-11-04T04:20:55.340Z,100700.59
2022-11-04T04:26:22.176Z,100719.00
2022-11-04T04:31:46.205Z,100716.78
2022-11-04T04:36:58.004Z,100705.00
2022-11-04T04:42:18.697Z,100699.81
2022-11-04T04:47:23.924Z,100705.38
2022-11-04T04:52:29.267Z,100718.44
2022-11-04T04:57:31.452Z,100709.34
2022-11-04T05:02:33.846Z,100720.84
2022-11-04T05:07:36.381Z,100711.50
2022-11-04T05:12:58.583Z,100712.38
2022-11-04T05:18:02.957Z,100723.88
2022-11-04T05:23:05.308Z,100713.81
2022-11-04T05:28:08.520Z,100729.78
2022-11-04T05:33:11.427Z,100731.63
2022-11-04T05:38:14.161Z,100734.06
2022-11-04T05:43:16.460Z,100731.59
2022-11-04T05:48:18.664Z,100752.59
2022-11-04T05:53:21.228Z,100754.66
2022-11-04T05:58:23.436Z,100758.06
2022-11-04T06:03:25.909Z,100762.34
2022-11-04T06:08:28.340Z,100783.00
2022-11-04T06:13:30.594Z,100729.56
2022-11-04T06:18:32.769Z,100792.00
2022-11-04T06:23:35.103Z,100781.16
2022-11-04T06:28:37.534Z,100799.03
2022-11-04T06:33:39.952Z,100786.78
2022-11-04T06:38:42.897Z,100795.28
2022-11-04T06:43:45.523Z,100807.56
2022-11-04T06:48:47.708Z,100801.44
2022-11-04T06:53:50.304Z,100791.88
2022-11-04T06:58:54.714Z,100800.00
2022-11-04T07:03:58.954Z,100807.19
2022-11-04T07:09:02.655Z,100787.81
2022-11-04T07:14:04.916Z,100798.78
2022-11-04T07:19:07.545Z,100789.16
2022-11-04T07:24:09.826Z,100755.16
2022-11-04T07:29:12.153Z,100792.00
2022-11-04T07:34:14.524Z,100770.88
2022-11-04T07:39:16.802Z,100787.34
2022-11-04T07:44:19.453Z,100802.31
2022-11-04T07:49:22.071Z,100784.03
2022-11-04T07:54:24.298Z,100778.22
2022-11-04T07:59:26.639Z,100778.22
2022-11-04T08:04:28.957Z,100766.53
2022-11-04T08:09:31.135Z,100782.09
2022-11-04T08:14:33.489Z,100755.69
2022-11-04T08:19:35.919Z,100757.91
2022-11-04T08:24:38.257Z,100751.41
2022-11-04T08:29:40.672Z,100743.84
2022-11-04T08:34:42.895Z,100753.31
2022-11-04T08:39:45.106Z,100734.28
2022-11-04T08:44:51.045Z,100740.44
2022-11-04T08:49:53.306Z,100726.34
2022-11-04T08:54:57.512Z,100748.41
2022-11-04T08:59:59.881Z,100728.78
2022-11-04T09:05:02.318Z,100710.03
2022-11-04T09:10:06.463Z,100703.63
2022-11-04T09:15:09.337Z,100725.63
2022-11-04T09:20:12.593Z,100715.84
2022-11-04T09:25:14.861Z,100706.34
2022-11-04T09:30:18.121Z,100681.81
2022-11-04T09:35:20.684Z,100680.84
2022-11-04T09:40:26.037Z,100674.97
2022-11-04T09:45:31.858Z,100665.44
2022-11-04T09:50:47.699Z,100658.03
2022-11-04T09:56:15.662Z,100647.41
2022-11-04T10:01:47.852Z,100634.84
2022-11-04T10:07:26.883Z,100637.06
2022-11-04T10:12:53.749Z,100618.13
2022-11-04T10:18:33.173Z,100610.31
2022-11-04T10:23:59.007Z,100583.91
2022-11-04T10:29:09.919Z,100568.16
2022-11-04T10:34:57.262Z,100552.03
2022-11-04T10:40:18.519Z,100571.00
2022-11-04T10:45:27.725Z,100536.16
2022-11-04T10:50:55.992Z,100536.25
2022-11-04T10:56:23.084Z,100535.47
2022-11-04T11:01:31.305Z,100516.66
2022-11-04T11:06:36.214Z,100468.81
2022-11-04T11:11:45.872Z,100501.13
2022-11-04T11:16:48.626Z,100484.28
2022-11-04T11:21:53.501Z,100467.88
2022-11-04T11:27:12.450Z,100458.69
2022-11-04T11:32:33.754Z,100452.50
2022-11-04T11:37:36.521Z,100462.06
2022-11-04T11:42:42.879Z,100441.16
2022-11-04T11:47:45.154Z,100427.47
2022-11-04T11:52:49.395Z,100425.50
2022-11-04T12:09:23.303Z,100411.25
2022-11-04T12:14:53.632Z,100411.16
2022-11-04T12:20:31.278Z,100403.66
2022-11-04T12:25:36.859Z,100381.91
2022-11-04T12:31:18.121Z,100378.94
2022-11-04T12:36:44.198Z,100353.25
2022-11-04T12:42:19.040Z,100374.13
2022-11-04T12:47:37.241Z,100356.91
2022-11-04T12:53:22.877Z,100315.34
2022-11-04T12:58:45.697Z,100345.75
2022-11-04T13:04:06.946Z,100327.41
2022-11-04T13:09:15.517Z,100330.94
2022-11-04T13:14:29.838Z,100322.19
2022-11-04T13:19:38.520Z,100338.59
2022-11-04T13:24:49.978Z,100322.41
2022-11-04T13:30:01.457Z,100330.31
2022-11-04T13:35:23.361Z,100281.66
2022-11-04T13:40:32.517Z,100321.72
2022-11-04T13:45:35.125Z,100305.53
2022-11-04T13:50:42.043Z,100310.28
2022-11-04T13:55:51.753Z,100308.78
2022-11-04T14:01:12.453Z,100327.41
2022-11-04T14:06:14.943Z,100310.72
2022-11-04T14:11:17.227Z,100319.78
2022-11-04T14:16:25.257Z,100322.75
2022-11-04T14:21:30.046Z,100315.09
2022-11-04T14:26:49.052Z,100310.66
2022-11-04T14:31:53.097Z,100315.00
2022-11-04T14:37:21.644Z,100297.06
2022-11-04T14:42:50.445Z,100306.88
2022-11-04T14:47:57.844Z,100292.44
2022-11-04T14:53:05.642Z,100294.19
2022-11-04T14:58:28.807Z,100294.81
2022-11-04T15:04:10.917Z,100299.50
2022-11-04T15:09:01.722Z,100279.81
2022-11-04T15:14:17.577Z,100274.84
2022-11-04T15:19:40.097Z,100283.75
2022-11-04T15:24:44.100Z,100303.31
2022-11-04T15:30:01.043Z,100297.91
2022-11-04T15:35:03.904Z,100277.97
2022-11-04T15:40:07.471Z,100299.66
2022-11-04T15:45:30.810Z,100315.84
2022-11-04T15:50:33.205Z,100315.09
2022-11-04T15:55:38.245Z,100290.47
2022-11-04T16:00:40.743Z,100322.78
2022-11-04T16:05:43.967Z,100299.59
2022-11-04T16:10:46.576Z,100299.38
2022-11-04T16:15:53.838Z,100315.06
2022-11-04T16:20:57.871Z,100295.63
2022-11-04T16:26:06.901Z,100304.13
2022-11-04T16:31:21.378Z,100327.44
2022-11-04T16:36:30.962Z,100320.84
2022-11-04T16:41:42.610Z,100307.81
2022-11-04T16:46:45.996Z,100332.28
2022-11-04T16:51:56.213Z,100331.03
2022-11-04T16:57:00.716Z,100333.31
2022-11-04T17:02:03.354Z,100336.50
2022-11-04T17:07:05.703Z,100325.25
2022-11-04T17:12:08.577Z,100327.72
2022-11-04T17:22:38.357Z,100314.00
2022-11-04T17:27:41.751Z,100333.59
2022-11-04T17:32:45.045Z,100348.69
2022-11-04T17:37:47.502Z,100342.81
2022-11-04T17:43:11.842Z,100329.38
2022-11-04T17:48:15.936Z,100330.66
2022-11-04T17:53:18.303Z,100327.72
2022-11-04T17:58:21.985Z,100264.63
2022-11-04T18:03:24.291Z,100318.63
2022-11-04T18:08:26.477Z,100339.50
2022-11-04T18:13:28.894Z,100304.47
2022-11-04T18:18:31.204Z,100344.69
2022-11-04T18:23:33.528Z,100355.28
2022-11-04T18:28:38.783Z,100361.53
2022-11-04T18:33:44.096Z,100317.63
2022-11-04T18:38:47.049Z,100343.44
2022-11-04T18:43:49.453Z,100368.78
2022-11-04T18:48:52.816Z,100355.69
2022-11-04T18:53:55.226Z,100341.78
2022-11-04T18:58:57.485Z,100350.13
2022-11-04T19:04:00.884Z,100359.25
2022-11-04T19:09:40.093Z,100298.66
2022-11-04T19:14:30.427Z,100375.56
2022-11-04T19:19:32.657Z,100351.03
2022-11-04T19:24:34.983Z,100372.91
2022-11-04T19:29:37.436Z,100333.75
2022-11-04T19:34:39.950Z,100369.19
2022-11-04T19:39:42.442Z,100340.84
2022-11-04T19:44:44.689Z,100379.53
2022-11-04T19:49:47.082Z,100369.63
2022-11-04T19:54:49.707Z,100365.72
2022-11-04T19:59:52.743Z,100367.88
2022-11-04T20:04:55.064Z,100379.19
2022-11-04T20:09:57.417Z,100362.09
2022-11-04T20:14:59.940Z,100342.00
2022-11-04T20:20:02.309Z,100377.28
2022-11-04T20:25:04.929Z,100376.34
2022-11-04T20:30:07.876Z,100357.56
2022-11-04T20:35:10.246Z,100380.00
2022-11-04T20:40:13.748Z,100390.81
2022-11-04T20:45:17.888Z,100357.88
2022-11-04T20:50:20.076Z,100351.88
2022-11-04T20:55:23.392Z,100358.75
2022-11-04T21:00:25.616Z,100360.31
2022-11-04T21:05:27.919Z,100341.66
2022-11-04T21:10:30.105Z,100366.13
2022-11-04T21:15:41.282Z,100347.94
2022-11-04T21:20:43.876Z,100368.69
2022-11-04T21:25:52.696Z,100379.25
2022-11-04T21:30:55.113Z,100356.50
2022-11-04T21:36:02.835Z,100368.53
2022-11-04T21:41:07.925Z,100380.13
2022-11-04T21:46:14.727Z,100376.41
2022-11-04T21:51:20.596Z,100379.72
2022-11-04T21:56:26.162Z,100360.22
2022-11-04T22:01:30.610Z,100340.75
2022-11-04T22:06:35.479Z,100321.69
2022-11-04T22:11:39.917Z,100344.09
2022-11-04T22:16:42.353Z,100335.63
2022-11-04T22:21:46.110Z,100345.94
2022-11-04T22:26:48.397Z,100313.72
2022-11-04T22:31:50.556Z,100328.44
2022-11-04T22:36:52.833Z,100313.38
2022-11-04T22:41:55.171Z,100328.94
2022-11-04T22:46:57.453Z,100316.50
2022-11-04T22:51:59.687Z,100298.94
2022-11-04T22:57:01.933Z,100278.81
2022-11-04T23:02:04.408Z,100310.53
2022-11-04T23:07:07.157Z,100301.63
2022-11-04T23:12:28.384Z,100326.25
2022-11-04T23:17:48.950Z,100333.50
2022-11-04T23:23:09.919Z,100335.38
2022-11-04T23:28:30.743Z,100297.88
2022-11-04T23:33:51.732Z,100300.78
2022-11-04T23:38:54.203Z,100310.72
2022-11-04T23:43:56.363Z,100295.59
2022-11-04T23:49:17.043Z,100308.00
2022-11-04T23:54:37.794Z,100315.03
2022-11-04T23:59:58.211Z,100297.03
